Time;durP1;ratioP1;P1;durP2;ratioP2;P2;SDS_P1;SDS_P2;PMS_P1;PMS_P2;Temp;Humidity;BMP_temperature;BMP_pressure;BME280_temperature;BME280_humidity;BME280_pressure;Samples;Min_cycle;Max_cycle;Signal;HPM_P1;HPM_P2
2022/03/20 00:01:44;;;;;;;29.30;26.70;;;;;;;3.87;98.69;104346.72;4993684;28;20466;-51
2022/03/20 00:04:11;;;;;;;28.30;25.67;;;;;;;3.87;98.22;104331.75;4993934;28;20521;-48
2022/03/20 00:06:39;;;;;;;27.43;24.70;;;;;;;3.88;98.02;104329.97;4993289;28;20454;-48
2022/03/20 00:09:07;;;;;;;28.40;25.80;;;;;;;3.86;98.16;104334.44;4993418;28;20861;-47
2022/03/20 00:11:34;;;;;;;28.53;25.83;;;;;;;3.85;97.84;104330.94;4993814;28;20458;-51
2022/03/20 00:14:04;;;;;;;28.83;26.53;;;;;;;3.88;97.47;104340.53;4994070;28;20482;-52
2022/03/20 00:16:31;;;;;;;28.77;25.90;;;;;;;3.83;96.80;104326.66;4993771;28;20511;-53
2022/03/20 00:18:59;;;;;;;27.40;24.50;;;;;;;3.87;97.08;104330.88;4993742;28;20442;-49
2022/03/20 00:21:27;;;;;;;28.23;25.73;;;;;;;3.89;97.14;104316.69;4993209;28;20553;-49
2022/03/20 00:23:54;;;;;;;27.57;25.17;;;;;;;3.95;97.24;104320.84;4993661;28;20518;-53
2022/03/20 00:26:22;;;;;;;29.03;26.47;;;;;;;3.95;97.00;104319.97;4993150;28;20889;-50
2022/03/20 00:28:50;;;;;;;29.07;26.83;;;;;;;3.88;97.33;104299.13;4993391;28;20862;-51
2022/03/20 00:31:18;;;;;;;29.33;25.70;;;;;;;3.82;97.47;104312.59;4993032;28;20469;-53
2022/03/20 00:33:46;;;;;;;29.37;26.63;;;;;;;3.79;97.12;104312.72;4993437;28;20806;-52
2022/03/20 00:36:14;;;;;;;28.60;25.90;;;;;;;3.77;97.00;104300.50;4992541;28;20540;-49
2022/03/20 00:38:41;;;;;;;28.43;25.60;;;;;;;3.74;96.60;104312.06;4993220;28;20789;-52
2022/03/20 00:41:09;;;;;;;28.87;26.37;;;;;;;3.73;96.90;104296.31;4992960;28;20462;-46
2022/03/20 00:43:38;;;;;;;28.27;26.00;;;;;;;3.73;96.69;104293.66;4993238;28;20532;-51
2022/03/20 00:46:06;;;;;;;29.33;26.93;;;;;;;3.77;96.64;104303.16;4983457;28;20545;-51
2022/03/20 00:48:35;;;;;;;29.83;27.00;;;;;;;3.79;96.71;104301.31;4987307;28;20436;-50
2022/03/20 00:51:03;;;;;;;30.17;27.37;;;;;;;3.76;96.54;104302.28;4993180;28;20486;-54
2022/03/20 00:53:36;;;;;;;28.60;25.80;;;;;;;3.78;95.80;104294.31;4993141;28;20853;-49
2022/03/20 00:56:04;;;;;;;28.87;26.60;;;;;;;3.74;96.34;104292.72;4992575;28;20529;-46
2022/03/20 00:58:33;;;;;;;31.33;27.63;;;;;;;3.73;96.29;104291.88;4992889;28;20520;-48
2022/03/20 01:01:00;;;;;;;29.83;27.30;;;;;;;3.68;96.76;104288.56;4991384;28;20557;-49
2022/03/20 01:03:28;;;;;;;30.07;27.40;;;;;;;3.63;97.05;104293.19;4993056;28;20434;-51
2022/03/20 01:05:58;;;;;;;30.53;28.13;;;;;;;3.66;96.66;104282.50;4992391;28;20515;-50
2022/03/20 01:08:26;;;;;;;29.03;26.63;;;;;;;3.57;96.64;104277.63;4992570;28;20937;-47
2022/03/20 01:10:53;;;;;;;29.17;26.67;;;;;;;3.55;96.84;104268.94;4992490;28;20458;-47
2022/03/20 01:13:21;;;;;;;30.17;27.30;;;;;;;3.51;97.08;104277.88;4992380;28;20521;-51
2022/03/20 01:15:49;;;;;;;29.63;27.07;;;;;;;3.48;97.64;104266.59;4992041;28;20480;-49
2022/03/20 01:18:16;;;;;;;30.37;27.77;;;;;;;3.45;97.80;104259.66;4992410;28;20445;-49
2022/03/20 01:20:44;;;;;;;30.07;27.53;;;;;;;3.43;97.75;104266.81;4992285;28;20798;-47
2022/03/20 01:23:13;;;;;;;30.70;27.90;;;;;;;3.42;98.15;104266.84;4992256;28;20442;-51
2022/03/20 01:25:41;;;;;;;31.67;28.50;;;;;;;3.38;97.94;104267.88;4992619;28;20425;-50
2022/03/20 01:28:09;;;;;;;31.17;28.20;;;;;;;3.39;97.75;104266.97;4992702;28;20466;-50
2022/03/20 01:30:38;;;;;;;31.07;28.03;;;;;;;3.34;98.01;104265.38;4992383;28;20908;-49
2022/03/20 01:33:06;;;;;;;31.37;28.63;;;;;;;3.30;97.42;104255.91;4992441;28;20441;-52
2022/03/20 01:35:35;;;;;;;30.00;27.27;;;;;;;3.26;97.54;104261.34;4992663;28;20831;-48
2022/03/20 01:38:02;;;;;;;33.27;30.33;;;;;;;3.27;97.25;104249.88;4991846;28;20462;-50
2022/03/20 01:40:32;;;;;;;31.63;28.77;;;;;;;3.23;97.09;104251.78;4992052;28;20554;-50
2022/03/20 01:42:59;;;;;;;32.20;29.50;;;;;;;3.25;96.60;104251.75;4992349;28;20525;-46
2022/03/20 01:45:28;;;;;;;33.40;30.60;;;;;;;3.23;96.95;104243.00;4984911;28;21074;-50
2022/03/20 01:47:55;;;;;;;33.50;30.80;;;;;;;3.18;96.35;104232.66;4983577;28;20465;-47
2022/03/20 01:50:25;;;;;;;34.20;31.20;;;;;;;3.14;96.50;104236.34;4991617;28;20464;-47
2022/03/20 01:52:55;;;;;;;33.90;30.40;;;;;;;3.11;96.06;104225.91;4991660;28;20528;-45
2022/03/20 01:55:24;;;;;;;32.30;29.47;;;;;;;3.05;95.40;104226.19;4991838;28;21091;-47
2022/03/20 01:57:54;;;;;;;36.50;32.83;;;;;;;3.05;95.18;104230.59;4990777;28;20473;-47
2022/03/20 02:00:24;;;;;;;36.33;32.87;;;;;;;3.01;94.49;104224.59;4991044;28;20462;-49
2022/03/20 02:02:53;;;;;;;35.37;31.77;;;;;;;2.98;94.22;104223.88;4979722;28;20475;-46
2022/03/20 02:05:22;;;;;;;36.73;33.27;;;;;;;2.95;94.01;104221.34;4983028;28;20433;-52
2022/03/20 02:07:49;;;;;;;36.00;32.03;;;;;;;2.95;93.28;104216.94;4990920;28;20542;-50
2022/03/20 02:10:17;;;;;;;35.07;31.97;;;;;;;2.91;93.19;104214.47;4991213;28;20491;-49
2022/03/20 02:12:45;;;;;;;35.00;31.50;;;;;;;2.89;92.14;104209.28;4990354;28;20438;-48
2022/03/20 02:15:15;;;;;;;36.30;32.77;;;;;;;2.89;91.14;104211.06;4991021;28;20836;-47
2022/03/20 02:17:44;;;;;;;36.90;33.37;;;;;;;2.89;91.23;104200.53;4990535;28;20549;-48
2022/03/20 02:20:12;;;;;;;36.40;32.60;;;;;;;2.88;91.19;104204.06;4990664;28;20453;-44
2022/03/20 02:22:43;;;;;;;37.70;33.63;;;;;;;2.85;91.30;104197.16;4991344;28;20913;-47
2022/03/20 02:25:14;;;;;;;37.70;34.00;;;;;;;2.85;90.14;104198.91;4991372;28;20437;-51
2022/03/20 02:27:44;;;;;;;38.70;34.90;;;;;;;2.86;89.99;104196.22;4990828;28;20523;-49
2022/03/20 02:30:15;;;;;;;38.87;34.93;;;;;;;2.82;89.68;104199.91;4990963;28;20497;-45
2022/03/20 02:32:44;;;;;;;36.53;33.00;;;;;;;2.82;89.77;104197.28;4991050;28;20525;-48
2022/03/20 02:35:15;;;;;;;35.57;32.20;;;;;;;2.80;89.18;104199.13;4991117;28;20898;-49
2022/03/20 02:37:46;;;;;;;37.73;33.80;;;;;;;2.79;89.24;104190.34;4990773;28;20493;-50
2022/03/20 02:40:15;;;;;;;36.53;32.93;;;;;;;2.79;88.42;104192.97;4991487;28;20887;-53
2022/03/20 02:42:44;;;;;;;40.17;34.50;;;;;;;2.79;87.46;104195.63;4992213;28;20868;-50
2022/03/20 02:45:14;;;;;;;37.37;33.97;;;;;;;2.81;86.53;104182.38;4991448;28;20462;-47
2022/03/20 02:47:43;;;;;;;37.47;33.50;;;;;;;2.84;85.53;104186.69;4991299;28;20499;-53
2022/03/20 02:50:12;;;;;;;40.50;36.40;;;;;;;2.86;85.00;104174.28;4991769;28;20456;-44
2022/03/20 02:52:47;;;;;;;39.33;35.13;;;;;;;2.88;85.23;104182.97;4991858;28;20440;-52
2022/03/20 02:55:16;;;;;;;41.17;35.40;;;;;;;2.91;84.17;104178.44;4991400;28;20570;-49
2022/03/20 02:57:47;;;;;;;38.70;34.80;;;;;;;2.95;83.54;104171.28;4990642;28;20531;-50
2022/03/20 03:00:17;;;;;;;39.70;35.83;;;;;;;2.95;82.18;104173.91;4991016;28;20544;-45
2022/03/20 03:02:45;;;;;;;43.23;37.00;;;;;;;2.99;80.97;104168.41;4990934;28;20976;-49
2022/03/20 03:05:15;;;;;;;40.50;36.60;;;;;;;3.02;81.31;104172.69;4991036;28;20426;-48
2022/03/20 03:13:18;;;;;;;41.67;37.33;;;;;;;3.05;82.43;104172.56;4990763;28;20947;-48
2022/03/20 03:15:46;;;;;;;43.60;38.47;;;;;;;3.05;83.26;104162.91;4990260;28;20830;-47
2022/03/20 03:18:13;;;;;;;39.73;35.77;;;;;;;3.02;84.16;104164.78;4990753;28;20438;-49
2022/03/20 03:20:41;;;;;;;46.87;36.77;;;;;;;3.03;84.79;104156.84;4989947;28;20968;-48
2022/03/20 03:23:11;;;;;;;37.33;33.90;;;;;;;3.01;84.55;104163.97;4990508;28;20537;-48
2022/03/20 03:25:40;;;;;;;39.80;36.00;;;;;;;3.00;84.09;104154.31;4990669;28;20434;-47
2022/03/20 03:28:09;;;;;;;41.70;37.23;;;;;;;2.99;84.40;104157.00;4990127;28;20492;-47
2022/03/20 03:30:37;;;;;;;42.63;37.50;;;;;;;2.99;84.89;104159.66;4990067;28;20497;-49
2022/03/20 03:33:04;;;;;;;40.33;36.27;;;;;;;2.96;85.37;104154.50;4990464;28;20484;-48
2022/03/20 03:35:43;;;;;;;44.90;38.40;;;;;;;2.95;86.43;104145.75;4990503;28;20569;-48
2022/03/20 03:38:16;;;;;;;42.40;38.37;;;;;;;2.90;86.58;104154.78;4990260;28;20439;-48
2022/03/20 03:40:46;;;;;;;43.47;39.17;;;;;;;2.89;86.37;104153.94;4990095;28;20565;-46
2022/03/20 03:43:14;;;;;;;41.10;36.70;;;;;;;2.87;86.65;104153.13;4990441;28;20438;-49
2022/03/20 03:45:43;;;;;;;43.30;38.80;;;;;;;2.86;86.22;104153.19;4981991;28;20465;-48
2022/03/20 03:48:11;;;;;;;46.00;37.20;;;;;;;2.84;86.65;104157.69;4981675;28;20533;-50
2022/03/20 03:50:41;;;;;;;41.10;37.20;;;;;;;2.84;86.37;104141.88;4990180;28;20541;-48
2022/03/20 03:53:09;;;;;;;42.83;38.50;;;;;;;2.82;85.30;104143.69;4991349;28;20501;-52
2022/03/20 03:55:41;;;;;;;57.00;39.80;;;;;;;2.80;85.41;104141.13;4991373;28;20481;-49
2022/03/20 03:58:09;;;;;;;40.47;36.30;;;;;;;2.81;85.32;104131.47;4989854;28;20452;-53
2022/03/20 04:00:37;;;;;;;44.33;40.03;;;;;;;2.80;85.64;104138.50;4990344;28;20470;-53
2022/03/20 04:03:05;;;;;;;41.53;37.57;;;;;;;2.79;85.75;104136.78;4990673;28;20442;-51
2022/03/20 04:05:34;;;;;;;42.77;38.60;;;;;;;2.78;85.30;104128.00;4990892;28;20438;-47
2022/03/20 04:08:02;;;;;;;41.30;37.37;;;;;;;2.76;84.76;104121.94;4990071;28;20867;-49
2022/03/20 04:10:30;;;;;;;41.97;37.80;;;;;;;2.78;84.01;104132.41;4989791;28;20480;-47
2022/03/20 04:12:59;;;;;;;43.40;38.63;;;;;;;2.78;84.83;104127.13;4990285;28;20529;-49
2022/03/20 04:15:27;;;;;;;39.80;36.00;;;;;;;2.76;85.38;104124.59;4988843;28;20437;-47
2022/03/20 04:17:58;;;;;;;41.50;37.23;;;;;;;2.73;84.53;104118.56;4989935;28;20980;-48
2022/03/20 04:20:25;;;;;;;39.63;35.63;;;;;;;2.74;84.64;104115.91;4989894;28;20537;-48
2022/03/20 04:25:40;;;;;;;39.20;35.70;;;;;;;2.72;84.96;104122.13;4989701;28;20517;-48
2022/03/20 04:28:09;;;;;;;41.93;37.80;;;;;;;2.70;85.44;104116.06;4988628;28;20472;-48
2022/03/20 04:30:37;;;;;;;39.67;36.10;;;;;;;2.69;85.67;104114.34;4989075;28;20882;-44
2022/03/20 04:33:05;;;;;;;42.67;37.83;;;;;;;2.68;85.82;104115.28;4989727;28;20948;-47
2022/03/20 04:35:33;;;;;;;38.60;34.83;;;;;;;2.67;84.78;104106.50;4990976;28;20430;-48
2022/03/20 04:38:04;;;;;;;41.87;36.60;;;;;;;2.67;85.73;104110.94;4991917;28;20522;-46
2022/03/20 04:40:33;;;;;;;39.40;35.80;;;;;;;2.65;85.31;104118.91;4992883;28;20485;-52
2022/03/20 04:43:01;;;;;;;41.30;37.17;;;;;;;2.64;85.17;104119.81;4992625;28;20445;-49
2022/03/20 04:45:30;;;;;;;39.60;35.20;;;;;;;2.61;85.53;104111.19;4985479;28;20460;-51
2022/03/20 04:58:58;;;;;;;42.60;38.40;;;;;;;2.57;86.50;104099.91;4992236;28;20941;-48
2022/03/20 05:01:27;;;;;;;38.70;35.40;;;;;;;2.57;87.61;104088.53;4991651;28;20473;-46
2022/03/20 05:03:55;;;;;;;39.77;35.77;;;;;;;2.58;87.26;104090.22;4992420;28;20492;-47
2022/03/20 05:06:23;;;;;;;39.73;35.50;;;;;;;2.58;86.01;104099.00;4991576;28;20457;-53
2022/03/20 05:08:50;;;;;;;41.60;37.63;;;;;;;2.59;85.77;104092.81;4992989;28;20434;-53
2022/03/20 05:14:03;;;;;;;38.97;35.20;;;;;;;2.59;86.25;104077.00;4993248;28;20433;-47
2022/03/20 05:16:32;;;;;;;43.40;38.77;;;;;;;2.59;86.60;104084.91;4992000;28;20474;-52
2022/03/20 05:19:00;;;;;;;42.60;38.50;;;;;;;2.60;86.96;104077.84;4992850;28;20469;-50
2022/03/20 05:21:27;;;;;;;42.57;38.90;;;;;;;2.61;87.03;104071.66;4992160;28;20462;-52
2022/03/20 05:23:57;;;;;;;44.67;38.83;;;;;;;2.60;87.98;104072.56;4992080;28;21023;-50
2022/03/20 05:26:24;;;;;;;42.97;38.40;;;;;;;2.61;88.04;104075.16;4991442;28;20465;-50
2022/03/20 05:28:52;;;;;;;43.03;38.27;;;;;;;2.62;87.38;104066.34;4992288;28;20529;-50
2022/03/20 05:31:20;;;;;;;44.30;39.47;;;;;;;2.62;87.60;104071.59;4991780;28;20466;-50
2022/03/20 05:33:49;;;;;;;41.90;37.77;;;;;;;2.65;87.37;104081.16;4991712;28;20941;-47
2022/03/20 05:36:16;;;;;;;48.00;37.63;;;;;;;2.65;87.44;104071.47;4991112;28;20533;-53
2022/03/20 05:38:44;;;;;;;41.30;37.10;;;;;;;2.69;86.61;104080.09;4992652;28;20436;-53
2022/03/20 05:43:57;;;;;;;41.77;37.20;;;;;;;2.75;88.57;104074.56;4992048;28;21119;-45
2022/03/20 05:46:24;;;;;;;41.80;37.70;;;;;;;2.77;90.13;104070.97;4979640;28;20528;-48
2022/03/20 05:48:53;;;;;;;42.73;38.03;;;;;;;2.88;89.79;104077.53;4988706;28;20431;-47
2022/03/20 05:51:21;;;;;;;40.07;36.10;;;;;;;2.90;91.03;104080.97;4991128;28;20460;-45
2022/03/20 05:53:49;;;;;;;41.77;37.23;;;;;;;3.09;91.17;104079.25;4992007;28;21139;-49
2022/03/20 05:59:01;;;;;;;40.07;36.17;;;;;;;3.26;96.59;104069.66;4991207;28;20528;-50
2022/03/20 06:01:29;;;;;;;39.33;35.67;;;;;;;3.30;97.73;104065.97;4991280;28;20505;-47
2022/03/20 06:03:58;;;;;;;40.13;36.30;;;;;;;3.57;97.90;104074.41;4990917;28;20430;-47
2022/03/20 06:06:26;;;;;;;39.17;35.03;;;;;;;3.62;100.00;104074.19;4988963;28;20469;-47
2022/03/20 06:08:54;;;;;;;38.37;35.47;;;;;;;3.92;100.00;104064.84;4990682;28;20438;-48
2022/03/20 06:11:21;;;;;;;41.27;37.87;;;;;;;4.09;100.00;104072.81;4990311;28;20462;-46
2022/03/20 06:13:49;;;;;;;39.73;36.47;;;;;;;4.46;100.00;104075.41;4990883;28;20430;-50
2022/03/20 06:16:17;;;;;;;37.80;34.63;;;;;;;4.80;100.00;104079.84;4990298;28;21083;-45
2022/03/20 06:18:45;;;;;;;37.47;34.43;;;;;;;5.09;98.08;104073.06;4990737;28;20473;-49
2022/03/20 06:21:15;;;;;;;36.23;33.20;;;;;;;5.25;96.01;104070.47;4979390;28;20875;-48
2022/03/20 06:23:45;;;;;;;35.67;32.53;;;;;;;5.60;95.39;104072.06;4971120;28;21013;-48
2022/03/20 06:26:13;;;;;;;33.07;30.27;;;;;;;5.67;92.56;104076.09;4970603;28;20542;-49
2022/03/20 06:28:40;;;;;;;33.47;30.97;;;;;;;5.83;92.31;104055.75;4971042;28;20534;-49
2022/03/20 06:31:10;;;;;;;31.40;29.10;;;;;;;6.06;90.43;104071.25;4968698;28;21068;-45
2022/03/20 06:33:56;;;;;;;32.07;28.80;;;;;;;5.98;88.67;104057.59;4968679;28;20431;-46
2022/03/20 06:36:25;;;;;;;32.77;30.00;;;;;;;6.23;89.82;104058.84;4969581;28;20870;-49
2022/03/20 06:38:54;;;;;;;32.53;30.00;;;;;;;6.31;87.68;104056.59;4970591;28;20485;-49
2022/03/20 06:41:22;;;;;;;34.57;31.57;;;;;;;6.56;87.06;104055.13;4970285;28;20461;-48
2022/03/20 06:43:50;;;;;;;34.80;32.00;;;;;;;6.65;85.61;104062.53;4971020;28;20533;-51
2022/03/20 06:46:18;;;;;;;32.70;30.43;;;;;;;6.75;83.76;104056.69;4977761;28;20465;-53
2022/03/20 06:48:53;;;;;;;34.43;31.67;;;;;;;6.88;83.75;104039.06;4985816;28;20453;-47
2022/03/20 06:51:22;;;;;;;33.27;30.77;;;;;;;7.00;83.06;104044.50;4989682;28;20545;-48
2022/03/20 06:53:52;;;;;;;34.30;31.50;;;;;;;6.94;82.05;104047.50;4990110;28;20479;-49
2022/03/20 06:56:19;;;;;;;31.07;28.97;;;;;;;6.98;81.29;104048.19;4985932;28;20489;-50
2022/03/20 06:58:47;;;;;;;32.53;29.87;;;;;;;6.98;81.92;104048.19;4970000;28;20479;-49
2022/03/20 07:01:14;;;;;;;33.83;30.93;;;;;;;7.01;80.98;104040.03;4985273;28;20504;-50
2022/03/20 07:03:42;;;;;;;30.13;27.93;;;;;;;6.99;80.59;104039.28;4989069;28;20450;-48
2022/03/20 07:06:10;;;;;;;33.03;30.53;;;;;;;6.97;80.52;104042.03;4989065;28;20458;-49
2022/03/20 07:08:38;;;;;;;30.17;28.00;;;;;;;6.82;80.99;104036.78;4988936;28;20870;-44
2022/03/20 07:11:07;;;;;;;31.50;29.17;;;;;;;6.72;81.44;104041.78;4987932;28;20462;-48
2022/03/20 07:13:50;;;;;;;31.83;29.23;;;;;;;6.75;81.36;104038.94;4989109;28;20902;-51
2022/03/20 07:16:19;;;;;;;31.13;28.93;;;;;;;6.54;82.14;104043.72;4989303;28;20496;-48
2022/03/20 07:18:48;;;;;;;31.77;29.10;;;;;;;6.52;82.17;104042.97;4989203;28;21027;-46
2022/03/20 07:21:18;;;;;;;31.83;29.20;;;;;;;6.36;81.76;104043.97;4989091;28;20501;-48
2022/03/20 07:23:46;;;;;;;32.07;29.20;;;;;;;6.33;81.83;104028.25;4989518;28;20448;-49
2022/03/20 07:31:46;;;;;;;34.30;31.43;;;;;;;5.95;84.55;104015.38;4988445;28;20462;-48
2022/03/20 07:34:13;;;;;;;33.17;30.70;;;;;;;5.85;84.50;104010.66;4986504;28;20875;-47
2022/03/20 07:36:41;;;;;;;32.50;29.90;;;;;;;5.84;83.60;104009.81;4986409;28;20549;-49
2022/03/20 07:39:09;;;;;;;31.70;28.93;;;;;;;6.00;83.13;104018.63;4989171;28;20485;-49
2022/03/20 07:41:38;;;;;;;33.27;30.53;;;;;;;6.32;83.07;104008.81;4988832;28;20566;-46
2022/03/20 07:44:05;;;;;;;32.90;30.37;;;;;;;6.45;81.37;104015.09;4988777;28;20448;-47
2022/03/20 07:46:33;;;;;;;31.73;29.10;;;;;;;6.54;79.90;104027.00;4987781;28;20548;-47
2022/03/20 07:49:02;;;;;;;31.23;28.30;;;;;;;6.81;79.15;104025.31;4989042;28;20434;-50
2022/03/20 07:51:30;;;;;;;32.97;29.93;;;;;;;6.87;76.75;104010.84;4986488;28;20548;-46
2022/03/20 07:53:58;;;;;;;32.60;29.90;;;;;;;7.01;76.45;104019.69;5023288;28;20465;-45
2022/03/20 07:56:28;;;;;;;31.00;28.20;;;;;;;7.26;75.68;104020.81;4988232;28;20462;-50
2022/03/20 07:58:57;;;;;;;33.07;30.17;;;;;;;7.11;73.06;104004.88;4988371;28;20565;-52
2022/03/20 08:01:25;;;;;;;31.87;29.20;;;;;;;6.89;72.54;104015.13;4971788;28;20506;-46
2022/03/20 08:03:53;;;;;;;31.30;29.00;;;;;;;7.01;74.40;104001.09;4966265;28;20478;-48
2022/03/20 08:06:21;;;;;;;31.00;28.47;;;;;;;6.80;74.17;104001.56;4969050;28;21060;-45
2022/03/20 08:08:49;;;;;;;31.73;28.90;;;;;;;6.75;74.19;104004.47;4969210;28;20461;-48
2022/03/20 08:11:17;;;;;;;30.63;27.67;;;;;;;6.71;74.30;103999.44;4971989;28;20550;-46
2022/03/20 08:13:44;;;;;;;30.90;27.70;;;;;;;6.78;74.13;103998.16;4972986;28;20441;-45
2022/03/20 08:16:15;;;;;;;30.40;27.70;;;;;;;6.79;74.63;103995.38;4970883;28;20543;-47
2022/03/20 08:18:44;;;;;;;28.93;26.43;;;;;;;6.86;74.22;103995.88;4971083;28;20553;-46
2022/03/20 08:21:13;;;;;;;30.57;27.93;;;;;;;6.91;74.02;104005.25;4972413;28;20489;-48
2022/03/20 08:23:40;;;;;;;31.57;28.90;;;;;;;6.98;73.60;104011.03;4972771;28;20522;-49
2022/03/20 08:26:09;;;;;;;29.67;27.00;;;;;;;6.80;73.17;103993.59;4972040;28;20450;-52
2022/03/20 08:28:37;;;;;;;31.57;28.67;;;;;;;6.68;73.74;103985.44;4972590;28;20980;-46
2022/03/20 08:31:06;;;;;;;30.30;27.53;;;;;;;6.80;74.09;103993.59;4971977;28;20475;-48
2022/03/20 08:33:36;;;;;;;28.93;26.47;;;;;;;6.79;71.63;103975.97;4971019;28;20446;-50
2022/03/20 08:36:05;;;;;;;29.93;27.20;;;;;;;6.92;72.50;103980.44;4972354;28;20525;-47
2022/03/20 08:38:32;;;;;;;30.23;27.60;;;;;;;7.05;72.17;103980.50;4972524;28;20565;-48
2022/03/20 08:41:01;;;;;;;33.03;29.90;;;;;;;7.05;72.32;103980.50;4971974;28;20483;-47
2022/03/20 08:43:28;;;;;;;30.33;27.93;;;;;;;7.10;72.22;103987.25;4972477;28;20797;-47
2022/03/20 08:45:56;;;;;;;31.13;28.13;;;;;;;7.06;71.52;103968.97;4999598;28;20473;-48
2022/03/20 08:48:24;;;;;;;31.53;28.90;;;;;;;7.27;70.92;103974.72;4963358;28;20960;-48
2022/03/20 08:50:53;;;;;;;33.60;30.57;;;;;;;7.24;69.70;103962.50;4967269;28;20554;-46
2022/03/20 08:53:27;;;;;;;30.83;28.43;;;;;;;7.40;70.88;103965.03;4970304;28;20438;-49
2022/03/20 08:55:54;;;;;;;31.57;29.07;;;;;;;7.41;69.69;103961.41;4970400;28;20517;-48
2022/03/20 08:58:22;;;;;;;31.80;28.97;;;;;;;7.41;68.79;103956.09;4971033;28;20481;-48
2022/03/20 09:00:50;;;;;;;29.90;27.40;;;;;;;7.50;69.29;103955.53;4982413;28;20544;-51
2022/03/20 09:03:18;;;;;;;29.90;26.70;;;;;;;7.61;68.63;103948.59;5019429;28;20431;-45
2022/03/20 09:05:46;;;;;;;28.93;26.07;;;;;;;7.66;67.67;103957.09;4991414;28;20952;-46
2022/03/20 09:08:15;;;;;;;27.20;24.57;;;;;;;7.77;66.77;103951.09;5022309;28;20943;-45
2022/03/20 09:10:42;;;;;;;26.47;23.90;;;;;;;7.72;66.67;103940.78;5005381;28;20635;-46
2022/03/20 09:13:10;;;;;;;25.30;22.63;;;;;;;7.74;66.73;103938.00;5011457;28;20525;-49
2022/03/20 09:15:38;;;;;;;24.87;22.33;;;;;;;7.60;66.11;103943.38;4990593;28;20457;-47
2022/03/20 09:20:51;;;;;;;25.77;23.13;;;;;;;7.55;65.18;103922.44;4990290;28;20824;-46
2022/03/20 09:23:20;;;;;;;23.17;20.97;;;;;;;7.66;65.22;103935.84;4991337;28;20529;-46
2022/03/20 09:25:49;;;;;;;28.27;21.50;;;;;;;7.67;66.25;103931.41;4990881;28;20521;-46
2022/03/20 09:28:17;;;;;;;23.00;20.60;;;;;;;7.73;65.00;103942.50;4991361;28;20836;-50
2022/03/20 09:30:45;;;;;;;28.20;22.40;;;;;;;7.79;64.32;103910.16;4990860;28;20549;-45
2022/03/20 09:33:13;;;;;;;23.00;20.60;;;;;;;7.79;63.72;103914.66;4990736;28;20445;-45
2022/03/20 09:35:40;;;;;;;25.30;22.53;;;;;;;7.73;63.80;103915.06;4990350;28;20442;-48
2022/03/20 09:38:09;;;;;;;25.27;20.97;;;;;;;7.70;63.37;103905.50;4993364;28;20490;-47
2022/03/20 09:40:39;;;;;;;22.93;20.60;;;;;;;7.76;63.24;103896.25;4989251;28;20497;-47
2022/03/20 09:43:08;;;;;;;22.60;20.30;;;;;;;8.04;63.91;103906.72;4989203;28;20445;-46
2022/03/20 09:45:35;;;;;;;24.43;21.50;;;;;;;8.12;62.18;103900.91;4989139;28;20468;-50
2022/03/20 09:48:05;;;;;;;24.10;21.70;;;;;;;8.01;63.06;103901.63;4988342;28;20473;-48
2022/03/20 09:50:32;;;;;;;21.37;18.97;;;;;;;8.09;63.07;103887.84;4990623;28;20537;-48
2022/03/20 09:53:00;;;;;;;23.33;20.93;;;;;;;8.12;61.26;103887.63;4990999;28;20873;-52
2022/03/20 09:55:28;;;;;;;23.73;21.33;;;;;;;8.11;61.89;103888.56;4990837;28;20525;-48
2022/03/20 09:57:58;;;;;;;21.27;19.30;;;;;;;8.17;61.58;103893.47;4990191;28;20553;-47
2022/03/20 10:00:26;;;;;;;23.20;20.80;;;;;;;7.93;62.62;103887.16;4981177;28;20510;-47
2022/03/20 10:02:54;;;;;;;23.33;19.43;;;;;;;8.01;61.80;103866.22;4971386;28;20525;-46
2022/03/20 10:05:23;;;;;;;22.40;20.03;;;;;;;8.20;61.55;103877.31;4971023;28;20435;-51
2022/03/20 10:07:51;;;;;;;22.97;20.60;;;;;;;8.18;60.92;103866.78;4970596;28;20497;-52
2022/03/20 10:10:22;;;;;;;24.57;21.87;;;;;;;8.20;61.23;103875.50;4971022;28;20451;-48
2022/03/20 10:12:53;;;;;;;23.63;21.23;;;;;;;8.32;61.15;103866.72;4971143;28;21053;-48
2022/03/20 10:15:30;;;;;;;22.93;20.63;;;;;;;8.49;60.12;103862.03;4971111;28;20869;-51
2022/03/20 10:18:07;;;;;;;23.60;21.00;;;;;;;8.48;58.97;103860.34;4969772;28;20524;-47
2022/03/20 10:20:36;;;;;;;21.73;18.53;;;;;;;8.54;58.51;103863.41;4970523;28;20514;-47
2022/03/20 10:23:05;;;;;;;23.63;21.07;;;;;;;8.23;59.57;103851.38;4960335;28;20447;-49
2022/03/20 10:25:32;;;;;;;24.13;21.30;;;;;;;8.40;58.82;103847.56;4970850;28;20493;-51
2022/03/20 10:28:01;;;;;;;24.33;19.53;;;;;;;8.44;58.74;103827.78;4970335;28;20466;-52
2022/03/20 10:30:30;;;;;;;23.13;20.37;;;;;;;8.52;59.07;103843.19;4970580;28;20542;-49
2022/03/20 10:32:57;;;;;;;23.43;20.70;;;;;;;8.62;58.12;103830.97;4969712;28;20554;-46
2022/03/20 10:35:25;;;;;;;23.53;20.83;;;;;;;8.58;56.87;103832.13;4970822;28;20439;-46
2022/03/20 10:37:55;;;;;;;22.03;19.73;;;;;;;8.61;58.13;103834.56;4970038;28;20494;-46
2022/03/20 10:40:26;;;;;;;23.43;19.97;;;;;;;8.57;57.71;103827.78;4970320;28;20487;-49
2022/03/20 10:43:15;;;;;;;23.90;21.40;;;;;;;8.38;58.09;103838.84;4970513;28;20489;-47
2022/03/20 10:46:00;;;;;;;25.43;21.03;;;;;;;8.27;58.36;103828.94;4970294;28;20926;-46
2022/03/20 10:48:36;;;;;;;23.83;21.33;;;;;;;8.20;57.82;103813.50;4969597;28;20438;-50
2022/03/20 10:51:04;;;;;;;28.53;21.13;;;;;;;8.24;58.91;103818.50;4970069;28;21007;-46
2022/03/20 10:53:32;;;;;;;23.10;20.37;;;;;;;8.12;59.31;103811.38;4970433;28;20445;-47
2022/03/20 10:56:05;;;;;;;22.13;19.90;;;;;;;8.12;59.04;103797.25;4969756;28;20538;-46
2022/03/20 10:58:38;;;;;;;26.37;20.70;;;;;;;8.27;59.35;103807.69;4970454;28;20530;-47
2022/03/20 11:01:08;;;;;;;27.77;21.30;;;;;;;8.34;58.79;103805.44;4982834;28;20485;-48
2022/03/20 11:03:38;;;;;;;23.47;21.00;;;;;;;8.49;58.94;103804.38;4988450;28;20479;-47
2022/03/20 11:06:07;;;;;;;24.70;21.10;;;;;;;8.45;58.20;103800.25;4980719;28;20454;-48
2022/03/20 11:08:37;;;;;;;29.07;22.00;;;;;;;8.39;58.82;103792.69;4982737;28;20473;-47
2022/03/20 11:11:05;;;;;;;23.07;20.63;;;;;;;8.41;59.42;103777.47;4978456;28;20987;-51
2022/03/20 11:13:35;;;;;;;21.43;19.27;;;;;;;8.37;57.25;103777.78;4986298;28;20435;-49
2022/03/20 11:16:07;;;;;;;26.80;20.87;;;;;;;8.57;58.74;103782.56;4979160;28;20455;-49
2022/03/20 11:18:36;;;;;;;25.93;21.03;;;;;;;8.54;58.22;103770.31;4984627;28;20436;-51
2022/03/20 11:21:06;;;;;;;25.63;20.83;;;;;;;8.48;57.22;103762.78;4978480;28;20510;-48
2022/03/20 11:23:35;;;;;;;25.70;22.27;;;;;;;8.49;57.69;103774.25;4973986;28;20432;-50
2022/03/20 11:26:04;;;;;;;23.63;20.90;;;;;;;8.47;57.15;103785.03;4977705;28;21656;-48
2022/03/20 11:28:37;;;;;;;26.63;23.13;;;;;;;8.51;58.29;103748.41;4968027;28;20443;-48
2022/03/20 11:31:06;;;;;;;26.40;21.67;;;;;;;8.55;56.94;103758.72;4987731;28;20469;-52
2022/03/20 11:33:34;;;;;;;30.97;22.27;;;;;;;8.69;56.46;103750.59;4971542;28;20460;-48
2022/03/20 11:36:02;;;;;;;25.13;21.27;;;;;;;8.65;55.88;103753.59;5019122;28;20430;-49
2022/03/20 11:38:35;;;;;;;24.43;20.57;;;;;;;8.62;55.42;103745.81;5071415;28;20436;-50
2022/03/20 11:41:14;;;;;;;25.43;22.93;;;;;;;8.68;55.94;103729.44;5070290;28;20559;-50
2022/03/20 11:43:44;;;;;;;25.37;21.80;;;;;;;8.87;55.53;103711.13;5071965;28;20464;-50
2022/03/20 11:46:21;;;;;;;23.47;20.50;;;;;;;8.63;54.49;103715.63;5024088;28;20491;-46
2022/03/20 11:49:23;;;;;;;25.93;20.80;;;;;;;8.67;53.89;103709.94;5039727;28;20451;-48
2022/03/20 11:52:06;;;;;;;21.53;19.30;;;;;;;8.68;54.36;103692.19;4993572;28;20447;-50
2022/03/20 11:54:53;;;;;;;24.87;20.30;;;;;;;8.66;54.05;103702.09;4993707;28;20532;-47
2022/03/20 11:57:40;;;;;;;22.87;20.57;;;;;;;8.82;53.47;103689.34;5035567;28;20550;-47
2022/03/20 12:00:16;;;;;;;27.93;19.17;;;;;;;8.75;53.16;103686.28;5055074;28;20517;-45
2022/03/20 12:02:54;;;;;;;23.90;20.30;;;;;;;8.70;53.26;103669.81;4999187;23;21013;-46